sensor_id;sensor_type;location;lat;lon;timestamp;P1;durP1;ratioP1;P2;durP2;ratioP2
16288;SDS011;26089;43.538;5.250;2022-11-13T00:00:49;7.43;;;6.03;;
16288;SDS011;26089;43.538;5.250;2022-11-13T00:03:16;6.63;;;5.70;;
16288;SDS011;26089;43.538;5.250;2022-11-13T00:05:45;7.67;;;5.80;;
16288;SDS011;26089;43.538;5.250;2022-11-13T00:08:12;7.43;;;5.97;;
16288;SDS011;26089;43.538;5.250;2022-11-13T00:10:39;9.87;;;6.83;;
16288;SDS011;26089;43.538;5.250;2022-11-13T00:13:06;8.80;;;6.37;;
16288;SDS011;26089;43.538;5.250;2022-11-13T00:15:33;8.53;;;6.23;;
16288;SDS011;26089;43.538;5.250;2022-11-13T00:18:00;9.73;;;6.47;;
16288;SDS011;26089;43.538;5.250;2022-11-13T00:20:27;7.77;;;5.80;;
16288;SDS011;26089;43.538;5.250;2022-11-13T00:22:56;7.30;;;5.47;;
16288;SDS011;26089;43.538;5.250;2022-11-13T00:25:23;6.07;;;5.27;;
16288;SDS011;26089;43.538;5.250;2022-11-13T00:27:50;7.30;;;5.00;;
16288;SDS011;26089;43.538;5.250;2022-11-13T00:30:17;6.07;;;5.47;;
16288;SDS011;26089;43.538;5.250;2022-11-13T00:32:44;8.10;;;5.80;;
16288;SDS011;26089;43.538;5.250;2022-11-13T00:35:11;8.57;;;5.60;;
16288;SDS011;26089;43.538;5.250;2022-11-13T00:37:38;6.17;;;5.23;;
16288;SDS011;26089;43.538;5.250;2022-11-13T00:40:07;8.40;;;6.00;;
16288;SDS011;26089;43.538;5.250;2022-11-13T00:42:35;8.13;;;5.47;;
16288;SDS011;26089;43.538;5.250;2022-11-13T00:45:02;6.67;;;5.17;;
16288;SDS011;26089;43.538;5.250;2022-11-13T00:47:33;6.60;;;5.67;;
16288;SDS011;26089;43.538;5.250;2022-11-13T00:50:00;7.03;;;6.00;;
16288;SDS011;26089;43.538;5.250;2022-11-13T00:52:27;7.03;;;6.13;;
16288;SDS011;26089;43.538;5.250;2022-11-13T00:54:54;9.07;;;6.73;;
16288;SDS011;26089;43.538;5.250;2022-11-13T00:57:22;8.60;;;6.53;;
16288;SDS011;26089;43.538;5.250;2022-11-13T00:59:49;8.20;;;6.07;;
16288;SDS011;26089;43.538;5.250;2022-11-13T01:02:16;6.50;;;5.90;;
16288;SDS011;26089;43.538;5.250;2022-11-13T01:04:43;9.23;;;6.50;;
16288;SDS011;26089;43.538;5.250;2022-11-13T01:07:10;7.63;;;5.77;;
16288;SDS011;26089;43.538;5.250;2022-11-13T01:09:37;8.87;;;5.93;;
16288;SDS011;26089;43.538;5.250;2022-11-13T01:12:04;7.07;;;6.00;;
16288;SDS011;26089;43.538;5.250;2022-11-13T01:14:33;8.63;;;6.13;;
16288;SDS011;26089;43.538;5.250;2022-11-13T01:17:00;7.13;;;5.77;;
16288;SDS011;26089;43.538;5.250;2022-11-13T01:19:27;8.63;;;5.90;;
16288;SDS011;26089;43.538;5.250;2022-11-13T01:21:54;9.20;;;5.53;;
16288;SDS011;26089;43.538;5.250;2022-11-13T01:24:21;6.37;;;5.70;;
16288;SDS011;26089;43.538;5.250;2022-11-13T01:26:48;9.43;;;5.33;;
16288;SDS011;26089;43.538;5.250;2022-11-13T01:29:15;7.27;;;5.60;;
16288;SDS011;26089;43.538;5.250;2022-11-13T01:31:44;7.80;;;5.50;;
16288;SDS011;26089;43.538;5.250;2022-11-13T01:34:11;7.97;;;5.00;;
16288;SDS011;26089;43.538;5.250;2022-11-13T01:36:38;6.17;;;4.90;;
16288;SDS011;26089;43.538;5.250;2022-11-13T01:39:05;5.80;;;5.10;;
16288;SDS011;26089;43.538;5.250;2022-11-13T01:41:32;7.37;;;5.23;;
16288;SDS011;26089;43.538;5.250;2022-11-13T01:44:00;6.70;;;5.00;;
16288;SDS011;26089;43.538;5.250;2022-11-13T01:46:28;6.83;;;4.50;;
16288;SDS011;26089;43.538;5.250;2022-11-13T01:49:00;8.07;;;4.80;;
16288;SDS011;26089;43.538;5.250;2022-11-13T01:51:35;9.47;;;5.20;;
16288;SDS011;26089;43.538;5.250;2022-11-13T01:54:06;5.73;;;5.17;;
16288;SDS011;26089;43.538;5.250;2022-11-13T01:56:36;5.97;;;4.93;;
16288;SDS011;26089;43.538;5.250;2022-11-13T01:59:05;6.50;;;5.00;;
16288;SDS011;26089;43.538;5.250;2022-11-13T02:01:35;6.50;;;4.70;;
16288;SDS011;26089;43.538;5.250;2022-11-13T02:04:03;6.27;;;5.23;;
16288;SDS011;26089;43.538;5.250;2022-11-13T02:06:32;8.17;;;4.80;;
16288;SDS011;26089;43.538;5.250;2022-11-13T02:09:04;4.67;;;4.20;;
16288;SDS011;26089;43.538;5.250;2022-11-13T02:11:32;6.20;;;4.70;;
16288;SDS011;26089;43.538;5.250;2022-11-13T02:13:59;6.57;;;4.30;;
16288;SDS011;26089;43.538;5.250;2022-11-13T02:16:27;6.03;;;4.10;;
16288;SDS011;26089;43.538;5.250;2022-11-13T02:18:56;5.60;;;3.70;;
16288;SDS011;26089;43.538;5.250;2022-11-13T02:21:28;4.77;;;4.10;;
16288;SDS011;26089;43.538;5.250;2022-11-13T02:26:44;5.40;;;4.33;;
16288;SDS011;26089;43.538;5.250;2022-11-13T02:29:11;5.27;;;3.70;;
16288;SDS011;26089;43.538;5.250;2022-11-13T02:31:38;4.40;;;4.00;;
16288;SDS011;26089;43.538;5.250;2022-11-13T02:34:05;5.10;;;4.30;;
16288;SDS011;26089;43.538;5.250;2022-11-13T02:36:32;5.23;;;3.93;;
16288;SDS011;26089;43.538;5.250;2022-11-13T02:39:03;4.40;;;3.70;;
16288;SDS011;26089;43.538;5.250;2022-11-13T02:41:34;4.07;;;3.60;;
16288;SDS011;26089;43.538;5.250;2022-11-13T02:44:02;4.37;;;3.63;;
16288;SDS011;26089;43.538;5.250;2022-11-13T02:46:29;4.67;;;3.80;;
16288;SDS011;26089;43.538;5.250;2022-11-13T02:48:56;5.43;;;3.53;;
16288;SDS011;26089;43.538;5.250;2022-11-13T02:51:23;4.10;;;3.47;;
16288;SDS011;26089;43.538;5.250;2022-11-13T02:53:51;5.00;;;4.00;;
16288;SDS011;26089;43.538;5.250;2022-11-13T02:56:18;4.60;;;4.20;;
16288;SDS011;26089;43.538;5.250;2022-11-13T02:58:46;4.40;;;3.33;;
16288;SDS011;26089;43.538;5.250;2022-11-13T03:01:13;4.10;;;3.70;;
16288;SDS011;26089;43.538;5.250;2022-11-13T03:03:40;5.03;;;3.60;;
16288;SDS011;26089;43.538;5.250;2022-11-13T03:06:07;4.97;;;3.33;;
16288;SDS011;26089;43.538;5.250;2022-11-13T03:08:34;4.97;;;4.00;;
16288;SDS011;26089;43.538;5.250;2022-11-13T03:11:05;3.67;;;3.27;;
16288;SDS011;26089;43.538;5.250;2022-11-13T03:13:33;4.00;;;3.70;;
16288;SDS011;26089;43.538;5.250;2022-11-13T03:16:05;3.90;;;3.40;;
16288;SDS011;26089;43.538;5.250;2022-11-13T03:18:36;4.50;;;3.43;;
16288;SDS011;26089;43.538;5.250;2022-11-13T03:21:07;4.43;;;3.90;;
16288;SDS011;26089;43.538;5.250;2022-11-13T03:23:35;3.90;;;3.40;;
16288;SDS011;26089;43.538;5.250;2022-11-13T03:26:03;4.40;;;4.00;;
16288;SDS011;26089;43.538;5.250;2022-11-13T03:28:31;4.00;;;3.63;;
16288;SDS011;26089;43.538;5.250;2022-11-13T03:30:59;4.03;;;3.63;;
16288;SDS011;26089;43.538;5.250;2022-11-13T03:33:28;3.87;;;3.47;;
16288;SDS011;26089;43.538;5.250;2022-11-13T03:35:55;3.70;;;3.40;;
16288;SDS011;26089;43.538;5.250;2022-11-13T03:38:22;3.97;;;2.90;;
16288;SDS011;26089;43.538;5.250;2022-11-13T03:40:49;4.63;;;3.20;;
16288;SDS011;26089;43.538;5.250;2022-11-13T03:43:17;3.67;;;3.37;;
16288;SDS011;26089;43.538;5.250;2022-11-13T03:45:44;3.03;;;2.80;;
16288;SDS011;26089;43.538;5.250;2022-11-13T03:48:11;3.47;;;3.17;;
16288;SDS011;26089;43.538;5.250;2022-11-13T03:50:40;4.50;;;3.30;;
16288;SDS011;26089;43.538;5.250;2022-11-13T03:53:08;3.70;;;3.40;;
16288;SDS011;26089;43.538;5.250;2022-11-13T03:55:36;3.57;;;3.27;;
16288;SDS011;26089;43.538;5.250;2022-11-13T03:58:03;3.07;;;2.87;;
16288;SDS011;26089;43.538;5.250;2022-11-13T04:00:30;3.63;;;3.33;;
16288;SDS011;26089;43.538;5.250;2022-11-13T04:02:58;3.57;;;3.27;;
16288;SDS011;26089;43.538;5.250;2022-11-13T04:05:25;4.60;;;3.53;;
16288;SDS011;26089;43.538;5.250;2022-11-13T04:07:53;5.17;;;3.50;;
16288;SDS011;26089;43.538;5.250;2022-11-13T04:10:20;3.50;;;3.20;;
16288;SDS011;26089;43.538;5.250;2022-11-13T04:12:47;4.67;;;3.27;;
16288;SDS011;26089;43.538;5.250;2022-11-13T04:15:15;4.23;;;2.93;;
16288;SDS011;26089;43.538;5.250;2022-11-13T04:17:42;5.90;;;3.00;;
16288;SDS011;26089;43.538;5.250;2022-11-13T04:20:09;4.13;;;2.90;;
16288;SDS011;26089;43.538;5.250;2022-11-13T04:22:37;3.63;;;3.20;;
16288;SDS011;26089;43.538;5.250;2022-11-13T04:25:06;3.80;;;3.10;;
16288;SDS011;26089;43.538;5.250;2022-11-13T04:27:34;4.33;;;3.27;;
16288;SDS011;26089;43.538;5.250;2022-11-13T04:30:01;4.73;;;3.47;;
16288;SDS011;26089;43.538;5.250;2022-11-13T04:32:29;3.30;;;3.00;;
16288;SDS011;26089;43.538;5.250;2022-11-13T04:34:57;3.83;;;3.40;;
16288;SDS011;26089;43.538;5.250;2022-11-13T04:37:24;5.33;;;3.00;;
16288;SDS011;26089;43.538;5.250;2022-11-13T04:39:51;3.17;;;2.87;;
16288;SDS011;26089;43.538;5.250;2022-11-13T04:42:19;3.10;;;2.90;;
16288;SDS011;26089;43.538;5.250;2022-11-13T04:45:04;3.23;;;2.93;;
16288;SDS011;26089;43.538;5.250;2022-11-13T04:47:32;5.33;;;3.30;;
16288;SDS011;26089;43.538;5.250;2022-11-13T04:49:59;3.50;;;2.87;;
16288;SDS011;26089;43.538;5.250;2022-11-13T04:52:26;5.50;;;2.90;;
16288;SDS011;26089;43.538;5.250;2022-11-13T04:54:53;3.00;;;2.80;;
16288;SDS011;26089;43.538;5.250;2022-11-13T04:57:22;3.00;;;2.80;;
16288;SDS011;26089;43.538;5.250;2022-11-13T04:59:49;2.70;;;2.50;;
16288;SDS011;26089;43.538;5.250;2022-11-13T05:02:17;2.93;;;2.63;;
16288;SDS011;26089;43.538;5.250;2022-11-13T05:04:44;3.53;;;2.67;;
16288;SDS011;26089;43.538;5.250;2022-11-13T05:07:11;3.33;;;2.60;;
16288;SDS011;26089;43.538;5.250;2022-11-13T05:09:38;3.00;;;2.70;;
16288;SDS011;26089;43.538;5.250;2022-11-13T05:12:05;3.87;;;2.57;;
16288;SDS011;26089;43.538;5.250;2022-11-13T05:14:34;3.20;;;2.80;;
16288;SDS011;26089;43.538;5.250;2022-11-13T05:17:02;3.17;;;2.80;;
16288;SDS011;26089;43.538;5.250;2022-11-13T05:19:31;7.53;;;2.60;;
16288;SDS011;26089;43.538;5.250;2022-11-13T05:21:58;2.40;;;2.20;;
16288;SDS011;26089;43.538;5.250;2022-11-13T05:24:25;2.50;;;2.13;;
16288;SDS011;26089;43.538;5.250;2022-11-13T05:26:52;2.27;;;2.17;;
16288;SDS011;26089;43.538;5.250;2022-11-13T05:29:20;2.90;;;2.60;;
16288;SDS011;26089;43.538;5.250;2022-11-13T05:31:48;2.70;;;2.50;;
16288;SDS011;26089;43.538;5.250;2022-11-13T05:34:15;3.40;;;2.30;;
16288;SDS011;26089;43.538;5.250;2022-11-13T05:36:43;2.83;;;2.53;;
16288;SDS011;26089;43.538;5.250;2022-11-13T05:39:10;2.33;;;2.20;;
16288;SDS011;26089;43.538;5.250;2022-11-13T05:41:37;2.60;;;2.40;;
16288;SDS011;26089;43.538;5.250;2022-11-13T05:44:04;2.83;;;2.63;;
16288;SDS011;26089;43.538;5.250;2022-11-13T05:46:31;2.87;;;2.60;;
16288;SDS011;26089;43.538;5.250;2022-11-13T05:49:00;3.63;;;2.20;;
16288;SDS011;26089;43.538;5.250;2022-11-13T05:51:28;2.97;;;2.67;;
16288;SDS011;26089;43.538;5.250;2022-11-13T05:53:56;2.83;;;2.63;;
16288;SDS011;26089;43.538;5.250;2022-11-13T05:56:24;3.27;;;3.07;;
16288;SDS011;26089;43.538;5.250;2022-11-13T05:58:52;2.70;;;2.50;;
16288;SDS011;26089;43.538;5.250;2022-11-13T06:01:20;2.83;;;2.47;;
16288;SDS011;26089;43.538;5.250;2022-11-13T06:03:49;3.27;;;2.97;;
16288;SDS011;26089;43.538;5.250;2022-11-13T06:06:19;2.80;;;2.53;;
16288;SDS011;26089;43.538;5.250;2022-11-13T06:08:47;3.43;;;2.60;;
16288;SDS011;26089;43.538;5.250;2022-11-13T06:11:15;3.03;;;2.40;;
16288;SDS011;26089;43.538;5.250;2022-11-13T06:13:43;2.87;;;2.20;;
16288;SDS011;26089;43.538;5.250;2022-11-13T06:16:11;2.90;;;2.73;;
16288;SDS011;26089;43.538;5.250;2022-11-13T06:18:40;2.37;;;2.23;;
16288;SDS011;26089;43.538;5.250;2022-11-13T06:21:09;3.40;;;2.30;;
16288;SDS011;26089;43.538;5.250;2022-11-13T06:23:39;3.53;;;2.63;;
16288;SDS011;26089;43.538;5.250;2022-11-13T06:26:07;2.60;;;2.40;;
16288;SDS011;26089;43.538;5.250;2022-11-13T06:28:36;2.67;;;2.47;;
16288;SDS011;26089;43.538;5.250;2022-11-13T06:31:04;2.57;;;2.37;;
16288;SDS011;26089;43.538;5.250;2022-11-13T06:33:32;2.10;;;2.00;;
16288;SDS011;26089;43.538;5.250;2022-11-13T06:36:00;2.70;;;2.00;;
16288;SDS011;26089;43.538;5.250;2022-11-13T06:38:29;2.10;;;2.00;;
16288;SDS011;26089;43.538;5.250;2022-11-13T06:40:59;2.33;;;2.20;;
16288;SDS011;26089;43.538;5.250;2022-11-13T06:43:26;2.20;;;2.10;;
16288;SDS011;26089;43.538;5.250;2022-11-13T06:45:54;2.53;;;2.33;;
16288;SDS011;26089;43.538;5.250;2022-11-13T06:48:21;4.70;;;2.50;;
16288;SDS011;26089;43.538;5.250;2022-11-13T06:50:49;2.40;;;2.20;;
16288;SDS011;26089;43.538;5.250;2022-11-13T06:53:17;3.73;;;2.63;;
16288;SDS011;26089;43.538;5.250;2022-11-13T06:55:44;2.63;;;2.43;;
16288;SDS011;26089;43.538;5.250;2022-11-13T06:58:14;2.97;;;2.30;;
16288;SDS011;26089;43.538;5.250;2022-11-13T07:00:42;2.57;;;2.37;;
16288;SDS011;26089;43.538;5.250;2022-11-13T07:03:14;2.37;;;2.17;;
16288;SDS011;26089;43.538;5.250;2022-11-13T07:05:41;2.17;;;1.97;;
16288;SDS011;26089;43.538;5.250;2022-11-13T07:08:09;2.53;;;2.30;;
16288;SDS011;26089;43.538;5.250;2022-11-13T07:10:36;2.47;;;2.10;;
16288;SDS011;26089;43.538;5.250;2022-11-13T07:13:03;2.80;;;2.10;;
16288;SDS011;26089;43.538;5.250;2022-11-13T07:15:33;2.60;;;2.40;;
16288;SDS011;26089;43.538;5.250;2022-11-13T07:18:01;2.67;;;2.47;;
16288;SDS011;26089;43.538;5.250;2022-11-13T07:20:28;2.00;;;1.90;;
16288;SDS011;26089;43.538;5.250;2022-11-13T07:22:55;2.13;;;1.93;;
16288;SDS011;26089;43.538;5.250;2022-11-13T07:25:23;2.60;;;2.00;;
16288;SDS011;26089;43.538;5.250;2022-11-13T07:27:50;1.93;;;1.83;;
16288;SDS011;26089;43.538;5.250;2022-11-13T07:30:18;3.03;;;2.83;;
16288;SDS011;26089;43.538;5.250;2022-11-13T07:32:47;3.00;;;2.30;;
16288;SDS011;26089;43.538;5.250;2022-11-13T07:35:14;2.00;;;1.90;;
16288;SDS011;26089;43.538;5.250;2022-11-13T07:37:41;1.87;;;1.77;;
16288;SDS011;26089;43.538;5.250;2022-11-13T07:40:09;2.27;;;1.80;;
16288;SDS011;26089;43.538;5.250;2022-11-13T07:42:37;2.20;;;2.00;;
16288;SDS011;26089;43.538;5.250;2022-11-13T07:45:05;2.13;;;2.03;;
16288;SDS011;26089;43.538;5.250;2022-11-13T07:47:32;2.70;;;2.47;;
16288;SDS011;26089;43.538;5.250;2022-11-13T07:50:01;2.10;;;2.00;;
16288;SDS011;26089;43.538;5.250;2022-11-13T07:52:28;1.87;;;1.77;;
16288;SDS011;26089;43.538;5.250;2022-11-13T07:54:55;3.77;;;2.60;;
16288;SDS011;26089;43.538;5.250;2022-11-13T07:57:22;2.47;;;2.30;;
16288;SDS011;26089;43.538;5.250;2022-11-13T07:59:51;3.33;;;2.27;;
16288;SDS011;26089;43.538;5.250;2022-11-13T08:02:18;3.23;;;2.50;;
16288;SDS011;26089;43.538;5.250;2022-11-13T08:04:45;3.73;;;2.63;;
16288;SDS011;26089;43.538;5.250;2022-11-13T08:07:13;2.50;;;2.30;;
16288;SDS011;26089;43.538;5.250;2022-11-13T08:09:40;3.03;;;2.40;;
16288;SDS011;26089;43.538;5.250;2022-11-13T08:12:07;4.67;;;2.50;;
16288;SDS011;26089;43.538;5.250;2022-11-13T08:14:34;3.40;;;2.47;;
16288;SDS011;26089;43.538;5.250;2022-11-13T08:17:01;3.27;;;2.30;;
16288;SDS011;26089;43.538;5.250;2022-11-13T08:21:56;2.17;;;1.90;;
16288;SDS011;26089;43.538;5.250;2022-11-13T08:24:23;2.87;;;2.40;;
16288;SDS011;26089;43.538;5.250;2022-11-13T08:26:50;2.30;;;2.00;;
16288;SDS011;26089;43.538;5.250;2022-11-13T08:29:17;5.33;;;2.40;;
16288;SDS011;26089;43.538;5.250;2022-11-13T08:31:44;2.30;;;2.10;;
16288;SDS011;26089;43.538;5.250;2022-11-13T08:34:11;3.70;;;2.27;;
16288;SDS011;26089;43.538;5.250;2022-11-13T08:36:38;2.30;;;2.10;;
16288;SDS011;26089;43.538;5.250;2022-11-13T08:39:07;2.37;;;2.17;;
16288;SDS011;26089;43.538;5.250;2022-11-13T08:41:34;2.27;;;2.07;;
16288;SDS011;26089;43.538;5.250;2022-11-13T08:44:01;2.73;;;2.27;;
16288;SDS011;26089;43.538;5.250;2022-11-13T08:46:28;2.27;;;2.10;;
16288;SDS011;26089;43.538;5.250;2022-11-13T08:48:55;3.33;;;2.50;;
16288;SDS011;26089;43.538;5.250;2022-11-13T08:51:22;3.10;;;2.70;;
16288;SDS011;26089;43.538;5.250;2022-11-13T08:53:49;2.70;;;2.50;;
16288;SDS011;26089;43.538;5.250;2022-11-13T08:56:18;3.23;;;2.80;;
16288;SDS011;26089;43.538;5.250;2022-11-13T08:58:45;5.93;;;4.43;;
16288;SDS011;26089;43.538;5.250;2022-11-13T09:01:12;4.37;;;3.37;;
16288;SDS011;26089;43.538;5.250;2022-11-13T09:03:41;5.40;;;3.00;;
16288;SDS011;26089;43.538;5.250;2022-11-13T09:06:08;4.45;;;3.53;;
16288;SDS011;26089;43.538;5.250;2022-11-13T09:08:35;3.73;;;3.13;;
16288;SDS011;26089;43.538;5.250;2022-11-13T09:11:02;4.57;;;3.50;;
16288;SDS011;26089;43.538;5.250;2022-11-13T09:13:31;8.40;;;4.10;;
16288;SDS011;26089;43.538;5.250;2022-11-13T09:15:59;4.77;;;3.67;;
16288;SDS011;26089;43.538;5.250;2022-11-13T09:18:27;5.13;;;3.90;;
16288;SDS011;26089;43.538;5.250;2022-11-13T09:20:54;6.83;;;4.37;;
16288;SDS011;26089;43.538;5.250;2022-11-13T09:23:25;6.00;;;4.37;;
16288;SDS011;26089;43.538;5.250;2022-11-13T09:25:53;5.83;;;3.80;;
16288;SDS011;26089;43.538;5.250;2022-11-13T09:28:20;7.00;;;4.37;;
16288;SDS011;26089;43.538;5.250;2022-11-13T09:30:48;4.40;;;4.00;;
16288;SDS011;26089;43.538;5.250;2022-11-13T09:33:15;3.77;;;3.43;;
16288;SDS011;26089;43.538;5.250;2022-11-13T09:35:42;3.97;;;3.60;;
16288;SDS011;26089;43.538;5.250;2022-11-13T09:38:10;5.37;;;4.43;;
16288;SDS011;26089;43.538;5.250;2022-11-13T09:40:40;4.53;;;3.40;;
16288;SDS011;26089;43.538;5.250;2022-11-13T09:43:16;4.20;;;3.63;;
16288;SDS011;26089;43.538;5.250;2022-11-13T09:45:53;4.67;;;3.57;;
16288;SDS011;26089;43.538;5.250;2022-11-13T09:48:24;5.63;;;3.83;;
16288;SDS011;26089;43.538;5.250;2022-11-13T09:50:58;3.47;;;3.00;;
16288;SDS011;26089;43.538;5.250;2022-11-13T09:53:34;3.70;;;3.10;;
16288;SDS011;26089;43.538;5.250;2022-11-13T09:56:06;3.30;;;3.00;;
16288;SDS011;26089;43.538;5.250;2022-11-13T09:58:43;3.27;;;3.00;;
16288;SDS011;26089;43.538;5.250;2022-11-13T10:01:16;4.97;;;3.00;;
16288;SDS011;26089;43.538;5.250;2022-11-13T10:03:51;3.87;;;3.30;;
16288;SDS011;26089;43.538;5.250;2022-11-13T10:06:26;3.90;;;3.20;;
16288;SDS011;26089;43.538;5.250;2022-11-13T10:09:02;4.93;;;3.43;;
16288;SDS011;26089;43.538;5.250;2022-11-13T10:11:40;3.13;;;2.80;;
16288;SDS011;26089;43.538;5.250;2022-11-13T10:14:13;2.60;;;2.40;;
16288;SDS011;26089;43.538;5.250;2022-11-13T10:16:46;3.80;;;2.97;;
16288;SDS011;26089;43.538;5.250;2022-11-13T10:19:19;5.60;;;3.83;;
16288;SDS011;26089;43.538;5.250;2022-11-13T10:21:51;4.70;;;3.10;;
16288;SDS011;26089;43.538;5.250;2022-11-13T10:24:24;3.37;;;3.07;;
16288;SDS011;26089;43.538;5.250;2022-11-13T10:26:53;3.27;;;2.90;;
16288;SDS011;26089;43.538;5.250;2022-11-13T10:29:23;4.70;;;3.07;;
16288;SDS011;26089;43.538;5.250;2022-11-13T10:31:55;3.23;;;2.93;;
16288;SDS011;26089;43.538;5.250;2022-11-13T10:34:23;3.33;;;3.00;;
16288;SDS011;26089;43.538;5.250;2022-11-13T10:36:55;4.90;;;2.80;;
16288;SDS011;26089;43.538;5.250;2022-11-13T10:39:39;3.30;;;3.00;;
16288;SDS011;26089;43.538;5.250;2022-11-13T10:42:17;3.57;;;2.80;;
16288;SDS011;26089;43.538;5.250;2022-11-13T10:44:54;3.63;;;3.33;;
16288;SDS011;26089;43.538;5.250;2022-11-13T10:47:24;3.23;;;2.93;;
16288;SDS011;26089;43.538;5.250;2022-11-13T10:49:53;4.17;;;3.40;;
16288;SDS011;26089;43.538;5.250;2022-11-13T10:52:21;7.30;;;4.83;;
16288;SDS011;26089;43.538;5.250;2022-11-13T10:54:49;5.97;;;4.20;;
16288;SDS011;26089;43.538;5.250;2022-11-13T10:57:31;8.33;;;5.30;;
16288;SDS011;26089;43.538;5.250;2022-11-13T10:59:59;6.00;;;4.40;;
16288;SDS011;26089;43.538;5.250;2022-11-13T11:02:29;7.50;;;4.63;;
16288;SDS011;26089;43.538;5.250;2022-11-13T11:05:00;6.63;;;4.50;;
16288;SDS011;26089;43.538;5.250;2022-11-13T11:07:28;4.00;;;3.70;;
16288;SDS011;26089;43.538;5.250;2022-11-13T11:09:55;3.23;;;2.87;;
16288;SDS011;26089;43.538;5.250;2022-11-13T11:12:23;4.57;;;3.00;;
16288;SDS011;26089;43.538;5.250;2022-11-13T11:14:55;3.00;;;2.73;;
16288;SDS011;26089;43.538;5.250;2022-11-13T11:17:36;3.23;;;2.70;;
16288;SDS011;26089;43.538;5.250;2022-11-13T11:20:19;4.67;;;2.23;;
16288;SDS011;26089;43.538;5.250;2022-11-13T11:22:52;3.40;;;2.60;;
16288;SDS011;26089;43.538;5.250;2022-11-13T11:25:26;3.37;;;2.50;;
16288;SDS011;26089;43.538;5.250;2022-11-13T11:28:01;4.80;;;2.70;;
16288;SDS011;26089;43.538;5.250;2022-11-13T11:30:37;3.00;;;2.60;;
16288;SDS011;26089;43.538;5.250;2022-11-13T11:33:14;3.67;;;2.23;;
16288;SDS011;26089;43.538;5.250;2022-11-13T11:35:47;4.47;;;2.70;;
16288;SDS011;26089;43.538;5.250;2022-11-13T11:38:18;2.10;;;2.00;;
16288;SDS011;26089;43.538;5.250;2022-11-13T11:40:51;2.53;;;2.27;;
16288;SDS011;26089;43.538;5.250;2022-11-13T11:43:24;4.53;;;2.67;;
16288;SDS011;26089;43.538;5.250;2022-11-13T11:45:59;4.60;;;2.17;;
16288;SDS011;26089;43.538;5.250;2022-11-13T11:48:28;2.80;;;2.20;;
16288;SDS011;26089;43.538;5.250;2022-11-13T11:50:58;3.33;;;2.40;;
16288;SDS011;26089;43.538;5.250;2022-11-13T11:53:34;2.63;;;2.37;;
16288;SDS011;26089;43.538;5.250;2022-11-13T11:56:15;3.67;;;2.20;;
16288;SDS011;26089;43.538;5.250;2022-11-13T11:59:00;2.30;;;2.10;;
16288;SDS011;26089;43.538;5.250;2022-11-13T12:01:52;2.80;;;2.00;;
16288;SDS011;26089;43.538;5.250;2022-11-13T12:04:36;3.07;;;2.00;;
16288;SDS011;26089;43.538;5.250;2022-11-13T12:07:22;5.30;;;2.20;;
16288;SDS011;26089;43.538;5.250;2022-11-13T12:10:01;4.67;;;2.40;;
16288;SDS011;26089;43.538;5.250;2022-11-13T12:12:40;2.80;;;2.17;;
16288;SDS011;26089;43.538;5.250;2022-11-13T12:15:17;2.67;;;2.03;;
16288;SDS011;26089;43.538;5.250;2022-11-13T12:17:50;2.67;;;2.20;;
16288;SDS011;26089;43.538;5.250;2022-11-13T12:20:32;3.80;;;2.10;;
16288;SDS011;26089;43.538;5.250;2022-11-13T12:23:09;5.60;;;2.53;;
16288;SDS011;26089;43.538;5.250;2022-11-13T12:25:47;3.17;;;2.20;;
16288;SDS011;26089;43.538;5.250;2022-11-13T12:28:18;2.80;;;2.00;;
16288;SDS011;26089;43.538;5.250;2022-11-13T12:30:52;5.47;;;2.83;;
16288;SDS011;26089;43.538;5.250;2022-11-13T12:33:28;2.83;;;1.90;;
16288;SDS011;26089;43.538;5.250;2022-11-13T12:36:04;2.57;;;2.37;;
16288;SDS011;26089;43.538;5.250;2022-11-13T12:38:36;3.23;;;2.40;;
16288;SDS011;26089;43.538;5.250;2022-11-13T12:41:12;3.50;;;2.23;;
16288;SDS011;26089;43.538;5.250;2022-11-13T12:46:42;4.70;;;2.80;;
16288;SDS011;26089;43.538;5.250;2022-11-13T12:49:14;5.50;;;3.13;;
16288;SDS011;26089;43.538;5.250;2022-11-13T12:51:53;8.83;;;2.73;;
16288;SDS011;26089;43.538;5.250;2022-11-13T12:54:25;4.83;;;2.50;;
16288;SDS011;26089;43.538;5.250;2022-11-13T12:57:03;3.83;;;2.63;;
16288;SDS011;26089;43.538;5.250;2022-11-13T12:59:34;3.73;;;2.10;;
16288;SDS011;26089;43.538;5.250;2022-11-13T13:02:08;4.27;;;2.60;;
16288;SDS011;26089;43.538;5.250;2022-11-13T13:04:56;3.77;;;2.23;;
16288;SDS011;26089;43.538;5.250;2022-11-13T13:07:44;2.63;;;2.33;;
16288;SDS011;26089;43.538;5.250;2022-11-13T13:10:34;5.73;;;2.37;;
16288;SDS011;26089;43.538;5.250;2022-11-13T13:13:13;3.70;;;2.50;;
16288;SDS011;26089;43.538;5.250;2022-11-13T13:15:52;4.67;;;2.53;;
16288;SDS011;26089;43.538;5.250;2022-11-13T13:18:26;4.50;;;2.33;;
16288;SDS011;26089;43.538;5.250;2022-11-13T13:21:00;4.47;;;2.40;;
16288;SDS011;26089;43.538;5.250;2022-11-13T13:23:32;5.00;;;3.13;;
16288;SDS011;26089;43.538;5.250;2022-11-13T13:26:02;4.37;;;2.70;;
16288;SDS011;26089;43.538;5.250;2022-11-13T13:28:31;6.87;;;3.10;;
16288;SDS011;26089;43.538;5.250;2022-11-13T13:31:01;4.23;;;2.97;;
16288;SDS011;26089;43.538;5.250;2022-11-13T13:33:38;7.60;;;3.97;;
16288;SDS011;26089;43.538;5.250;2022-11-13T13:36:15;5.80;;;3.53;;
16288;SDS011;26089;43.538;5.250;2022-11-13T13:38:52;6.03;;;3.17;;
16288;SDS011;26089;43.538;5.250;2022-11-13T13:41:27;7.23;;;3.57;;
16288;SDS011;26089;43.538;5.250;2022-11-13T13:44:06;5.17;;;3.13;;
16288;SDS011;26089;43.538;5.250;2022-11-13T13:46:48;5.27;;;2.87;;
16288;SDS011;26089;43.538;5.250;2022-11-13T13:49:16;4.50;;;2.87;;
16288;SDS011;26089;43.538;5.250;2022-11-13T13:51:47;3.47;;;2.73;;
16288;SDS011;26089;43.538;5.250;2022-11-13T13:54:26;4.63;;;2.80;;
16288;SDS011;26089;43.538;5.250;2022-11-13T13:56:55;3.33;;;3.03;;
16288;SDS011;26089;43.538;5.250;2022-11-13T13:59:27;6.90;;;3.33;;
16288;SDS011;26089;43.538;5.250;2022-11-13T14:01:58;8.73;;;3.60;;
16288;SDS011;26089;43.538;5.250;2022-11-13T14:04:27;6.80;;;3.77;;
16288;SDS011;26089;43.538;5.250;2022-11-13T14:06:56;7.33;;;3.80;;
16288;SDS011;26089;43.538;5.250;2022-11-13T14:09:26;5.23;;;3.53;;
16288;SDS011;26089;43.538;5.250;2022-11-13T14:11:57;6.10;;;3.90;;
16288;SDS011;26089;43.538;5.250;2022-11-13T14:14:25;4.47;;;3.73;;
16288;SDS011;26089;43.538;5.250;2022-11-13T14:16:52;5.63;;;3.90;;
16288;SDS011;26089;43.538;5.250;2022-11-13T14:19:20;5.73;;;3.83;;
16288;SDS011;26089;43.538;5.250;2022-11-13T14:21:48;4.43;;;3.47;;
16288;SDS011;26089;43.538;5.250;2022-11-13T14:24:20;6.77;;;3.53;;
16288;SDS011;26089;43.538;5.250;2022-11-13T14:26:51;5.60;;;3.40;;
16288;SDS011;26089;43.538;5.250;2022-11-13T14:29:22;7.67;;;3.87;;
16288;SDS011;26089;43.538;5.250;2022-11-13T14:32:01;5.60;;;3.50;;
16288;SDS011;26089;43.538;5.250;2022-11-13T14:34:29;6.27;;;3.77;;
16288;SDS011;26089;43.538;5.250;2022-11-13T14:37:12;6.23;;;3.47;;
16288;SDS011;26089;43.538;5.250;2022-11-13T14:39:47;6.20;;;3.80;;
16288;SDS011;26089;43.538;5.250;2022-11-13T14:42:18;7.03;;;3.30;;
16288;SDS011;26089;43.538;5.250;2022-11-13T14:44:47;7.03;;;3.83;;
16288;SDS011;26089;43.538;5.250;2022-11-13T14:47:24;6.70;;;3.80;;
16288;SDS011;26089;43.538;5.250;2022-11-13T14:49:53;6.87;;;4.20;;
16288;SDS011;26089;43.538;5.250;2022-11-13T14:52:21;6.63;;;4.03;;
16288;SDS011;26089;43.538;5.250;2022-11-13T14:54:59;8.77;;;4.30;;
16288;SDS011;26089;43.538;5.250;2022-11-13T14:57:29;5.83;;;3.60;;
16288;SDS011;26089;43.538;5.250;2022-11-13T14:59:56;7.53;;;4.03;;
16288;SDS011;26089;43.538;5.250;2022-11-13T15:02:33;7.87;;;4.00;;
16288;SDS011;26089;43.538;5.250;2022-11-13T15:05:00;10.80;;;4.50;;
16288;SDS011;26089;43.538;5.250;2022-11-13T15:07:28;10.00;;;4.07;;
16288;SDS011;26089;43.538;5.250;2022-11-13T15:09:58;11.20;;;4.07;;
16288;SDS011;26089;43.538;5.250;2022-11-13T15:12:25;7.33;;;3.90;;